Saipan International Airport

Date: 2024-06-11 09:54:00Z

Type: METAR

Weather: Heavy Rain

Winds: 110° at 9 kts

Visibility: 4

Ceiling (AGL FT): Clouds FEW at 1100, BROKEN at 2500, OVERCAST at 6000, BROKEN at 15000

RAW METAR: PGSN 110954Z 11009KT 4SM +RA BR FEW011CB BKN025 OVC060 27/25 A2993 RMK AO2 RAE0858B28 SLP157 CB VC NW-NE MOV SW P0022 T02670250 $

project-image